Time;durP1;ratioP1;P1;durP2;ratioP2;P2;SDS_P1;SDS_P2;PMS_P1;PMS_P2;Temp;Humidity;BMP_temperature;BMP_pressure;BME280_temperature;BME280_humidity;BME280_pressure;Samples;Min_cycle;Max_cycle;Signal;HPM_P1;HPM_P2
2024/02/03 00:02:46;;;;;;;0.23;0.13;;;;;;;;;;10537320;27;20626;-76
2024/02/03 00:07:51;;;;;;;0.22;0.13;;;;;;;;;;10533262;27;20056;-76
2024/02/03 00:12:53;;;;;;;0.40;0.38;;;;;;;;;;10533895;27;20160;-76
2024/02/03 00:17:57;;;;;;;0.28;0.10;;;;;;;;;;10538396;27;20511;-76
2024/02/03 00:23:01;;;;;;;0.35;0.20;;;;;;;;;;10539976;27;20047;-75
2024/02/03 00:28:04;;;;;;;5.28;0.25;;;;;;;;;;10534675;28;20063;-76
2024/02/03 00:33:08;;;;;;;0.17;0.17;;;;;;;;;;10541718;27;20333;-75
2024/02/03 00:38:12;;;;;;;0.68;0.20;;;;;;;;;;10536816;27;20191;-75
2024/02/03 00:43:16;;;;;;;0.30;0.20;;;;;;;;;;10542904;27;20051;-75
2024/02/03 00:48:19;;;;;;;0.20;0.20;;;;;;;;;;10536664;27;20323;-74
2024/02/03 00:53:24;;;;;;;0.20;0.10;;;;;;;;;;10534815;28;20043;-75
2024/02/03 00:58:26;;;;;;;;;;;;;;;;;;10538662;27;20059;-75
2024/02/03 01:03:29;;;;;;;0.10;0.10;;;;;;;;;;10534278;27;19990;-75
2024/02/03 01:08:33;;;;;;;0.55;0.25;;;;;;;;;;10527966;27;20441;-74
2024/02/03 01:13:36;;;;;;;;;;;;;;;;;;10532464;27;20481;-74
2024/02/03 01:18:39;;;;;;;0.28;0.20;;;;;;;;;;10521343;27;20344;-75
2024/02/03 01:23:43;;;;;;;0.45;0.20;;;;;;;;;;10534221;27;20587;-75
2024/02/03 01:28:46;;;;;;;0.10;0.10;;;;;;;;;;10535862;27;21153;-75
2024/02/03 01:33:49;;;;;;;0.10;0.10;;;;;;;;;;10536615;27;20059;-75
2024/02/03 01:38:53;;;;;;;0.60;0.20;;;;;;;;;;10534651;27;20104;-75
2024/02/03 01:43:56;;;;;;;1.08;0.47;;;;;;;;;;10532881;27;20036;-74
2024/02/03 01:48:58;;;;;;;0.30;0.20;;;;;;;;;;10533929;27;20043;-75
2024/02/03 01:54:03;;;;;;;0.10;0.10;;;;;;;;;;10532178;27;20485;-74
2024/02/03 01:59:06;;;;;;;0.20;0.20;;;;;;;;;;10533153;27;20032;-73
2024/02/03 02:04:10;;;;;;;0.20;0.20;;;;;;;;;;10533112;27;20051;-75
2024/02/03 02:09:20;;;;;;;0.08;0.08;;;;;;;;;;10530322;28;20039;-74
2024/02/03 02:14:23;;;;;;;0.10;0.10;;;;;;;;;;10518152;27;20050;-74
2024/02/03 02:19:26;;;;;;;0.27;0.20;;;;;;;;;;10529392;28;20066;-74
2024/02/03 02:24:30;;;;;;;0.73;0.20;;;;;;;;;;10532991;27;20503;-75
2024/02/03 02:29:33;;;;;;;0.20;0.20;;;;;;;;;;10534297;28;20382;-76
2024/02/03 02:34:38;;;;;;;0.27;0.27;;;;;;;;;;10531824;28;20055;-74
2024/02/03 02:39:43;;;;;;;0.85;0.28;;;;;;;;;;10529137;28;20187;-75
2024/02/03 02:44:45;;;;;;;0.30;0.30;;;;;;;;;;10530445;28;20043;-75
2024/02/03 02:49:48;;;;;;;0.70;0.40;;;;;;;;;;10532148;28;20108;-74
2024/02/03 02:54:52;;;;;;;0.50;0.50;;;;;;;;;;10531395;27;20181;-74
2024/02/03 02:59:55;;;;;;;0.15;0.15;;;;;;;;;;10530434;27;20036;-75
2024/02/03 03:04:58;;;;;;;1.40;0.20;;;;;;;;;;10529612;27;20043;-74
2024/02/03 03:10:02;;;;;;;0.10;0.10;;;;;;;;;;10526219;28;20039;-74
2024/02/03 03:15:05;;;;;;;0.30;0.20;;;;;;;;;;10529168;28;20031;-75
2024/02/03 03:20:09;;;;;;;0.20;0.10;;;;;;;;;;10527198;28;20579;-74
2024/02/03 03:25:13;;;;;;;0.73;0.30;;;;;;;;;;10531692;28;20055;-75
2024/02/03 03:30:17;;;;;;;0.20;0.20;;;;;;;;;;10521793;27;20066;-75
2024/02/03 03:35:20;;;;;;;0.10;0.10;;;;;;;;;;10540469;27;20754;-76
2024/02/03 03:40:24;;;;;;;0.10;0.10;;;;;;;;;;10539869;27;20173;-76
2024/02/03 03:45:26;;;;;;;0.30;0.17;;;;;;;;;;10542467;27;20194;-75
2024/02/03 03:50:29;;;;;;;0.70;0.28;;;;;;;;;;10539025;28;20562;-75
2024/02/03 03:55:33;;;;;;;0.20;0.20;;;;;;;;;;10538150;28;20116;-75
2024/02/03 04:00:36;;;;;;;0.10;0.10;;;;;;;;;;10536881;28;20160;-74
2024/02/03 04:05:39;;;;;;;0.30;0.13;;;;;;;;;;10536769;27;20043;-74
2024/02/03 04:10:43;;;;;;;0.63;0.20;;;;;;;;;;10537446;27;20058;-74
2024/02/03 04:15:46;;;;;;;;;;;;;;;;;;10538965;28;20131;-75
2024/02/03 04:20:49;;;;;;;0.10;0.10;;;;;;;;;;10535497;27;19928;-76
2024/02/03 04:25:53;;;;;;;1.08;0.15;;;;;;;;;;10534894;27;20074;-75
2024/02/03 04:30:58;;;;;;;0.10;0.10;;;;;;;;;;10535819;27;20039;-75
2024/02/03 04:36:03;;;;;;;0.20;0.20;;;;;;;;;;10536131;27;20040;-75
2024/02/03 04:41:08;;;;;;;0.20;0.20;;;;;;;;;;10537449;28;20071;-76
2024/02/03 04:46:11;;;;;;;0.17;0.17;;;;;;;;;;10535070;27;20043;-77
2024/02/03 04:51:14;;;;;;;0.45;0.20;;;;;;;;;;10535843;27;21256;-74
2024/02/03 04:56:18;;;;;;;0.40;0.10;;;;;;;;;;10534388;27;20059;-74
2024/02/03 05:01:21;;;;;;;0.20;0.20;;;;;;;;;;10536683;28;20213;-74
2024/02/03 05:06:24;;;;;;;0.30;0.10;;;;;;;;;;10518365;28;20036;-76
2024/02/03 05:11:28;;;;;;;0.68;0.20;;;;;;;;;;10531176;27;20051;-73
2024/02/03 05:16:31;;;;;;;0.30;0.30;;;;;;;;;;10535715;28;20101;-77
2024/02/03 05:21:33;;;;;;;0.10;0.10;;;;;;;;;;10534102;27;21650;-76
2024/02/03 05:26:37;;;;;;;0.40;0.30;;;;;;;;;;10534961;27;20035;-75
2024/02/03 05:31:40;;;;;;;0.40;0.30;;;;;;;;;;10535170;28;20128;-74
2024/02/03 05:36:43;;;;;;;0.80;0.50;;;;;;;;;;10533407;28;20504;-74
2024/02/03 05:41:47;;;;;;;0.95;0.40;;;;;;;;;;10533815;27;20042;-77
2024/02/03 05:46:50;;;;;;;;;;;;;;;;;;10533304;28;20525;-75
2024/02/03 05:51:53;;;;;;;3.05;0.50;;;;;;;;;;10533979;28;19928;-76
2024/02/03 05:56:57;;;;;;;0.75;0.30;;;;;;;;;;10535601;27;20043;-74
2024/02/03 06:01:59;;;;;;;;;;;;;;;;;;10533629;27;20031;-76
2024/02/03 06:07:03;;;;;;;0.57;0.50;;;;;;;;;;10530866;27;19924;-75
2024/02/03 06:12:09;;;;;;;1.00;0.47;;;;;;;;;;10532836;28;20497;-75
2024/02/03 06:17:12;;;;;;;1.05;0.50;;;;;;;;;;10529688;27;20031;-76
2024/02/03 06:22:15;;;;;;;0.43;0.30;;;;;;;;;;10533750;27;20501;-76
2024/02/03 06:27:19;;;;;;;1.17;0.45;;;;;;;;;;10531165;28;20378;-75
2024/02/03 06:32:22;;;;;;;0.70;0.43;;;;;;;;;;10533561;28;20035;-75
2024/02/03 06:37:25;;;;;;;1.20;0.60;;;;;;;;;;10532268;27;20036;-75
2024/02/03 06:42:29;;;;;;;0.85;0.70;;;;;;;;;;10531490;28;20685;-76
2024/02/03 06:47:31;;;;;;;0.65;0.40;;;;;;;;;;10531751;27;20581;-76
2024/02/03 06:52:34;;;;;;;1.35;0.65;;;;;;;;;;10530992;28;20442;-75
2024/02/03 06:57:38;;;;;;;0.85;0.50;;;;;;;;;;10530269;28;20043;-74
2024/02/03 07:02:41;;;;;;;1.55;0.60;;;;;;;;;;10530756;28;20096;-76
2024/02/03 07:07:44;;;;;;;0.65;0.38;;;;;;;;;;10512868;28;20040;-75
2024/02/03 07:12:48;;;;;;;0.82;0.43;;;;;;;;;;10528991;28;20074;-73
2024/02/03 07:17:50;;;;;;;2.40;0.90;;;;;;;;;;10529470;28;20485;-75
2024/02/03 07:22:53;;;;;;;1.08;0.90;;;;;;;;;;10529517;28;20580;-76
2024/02/03 07:27:58;;;;;;;1.85;0.90;;;;;;;;;;10534188;28;20038;-75
2024/02/03 07:33:01;;;;;;;0.40;0.40;;;;;;;;;;10525923;28;20059;-77
2024/02/03 07:38:05;;;;;;;0.90;0.80;;;;;;;;;;10529442;28;20121;-74
2024/02/03 07:43:09;;;;;;;2.77;1.00;;;;;;;;;;10510618;28;20319;-76
2024/02/03 07:48:12;;;;;;;1.00;0.95;;;;;;;;;;10529844;28;20031;-76
2024/02/03 07:53:14;;;;;;;1.27;1.00;;;;;;;;;;10524729;28;20048;-76
2024/02/03 07:58:21;;;;;;;1.37;1.10;;;;;;;;;;10510496;28;20071;-77
2024/02/03 08:03:24;;;;;;;1.48;1.00;;;;;;;;;;10528486;28;20167;-77
2024/02/03 08:08:27;;;;;;;0.70;0.70;;;;;;;;;;10527703;28;20567;-76
2024/02/03 08:13:31;;;;;;;1.27;1.00;;;;;;;;;;10530656;28;20715;-77
2024/02/03 08:18:34;;;;;;;1.67;1.20;;;;;;;;;;10532280;28;20066;-77
2024/02/03 08:23:37;;;;;;;4.32;1.35;;;;;;;;;;10528810;27;20051;-78
2024/02/03 08:28:41;;;;;;;3.17;1.30;;;;;;;;;;10536451;27;20608;-76
2024/02/03 08:33:44;;;;;;;2.65;1.20;;;;;;;;;;10533048;27;20469;-77
2024/02/03 08:38:46;;;;;;;;;;;;;;;;;;10528853;27;20065;-75
2024/02/03 08:43:51;;;;;;;1.38;1.20;;;;;;;;;;10535906;28;19928;-77
2024/02/03 08:48:54;;;;;;;1.20;1.10;;;;;;;;;;10534627;28;20104;-77
2024/02/03 08:53:57;;;;;;;1.30;1.20;;;;;;;;;;10531615;27;20054;-77
2024/02/03 08:59:02;;;;;;;1.00;1.00;;;;;;;;;;10519810;27;20055;-75
2024/02/03 09:04:08;;;;;;;1.25;1.20;;;;;;;;;;10532169;27;20121;-74
2024/02/03 09:09:11;;;;;;;6.45;1.50;;;;;;;;;;10530204;27;20185;-76
2024/02/03 09:14:15;;;;;;;1.23;1.13;;;;;;;;;;10530183;28;20469;-76
2024/02/03 09:19:18;;;;;;;1.60;1.50;;;;;;;;;;10526476;27;20081;-76
2024/02/03 09:24:21;;;;;;;3.55;1.50;;;;;;;;;;10526204;27;20047;-76
2024/02/03 09:29:25;;;;;;;1.52;1.40;;;;;;;;;;10530512;27;20035;-76
2024/02/03 09:34:28;;;;;;;2.25;1.60;;;;;;;;;;10530186;27;20056;-77
2024/02/03 09:39:37;;;;;;;2.90;1.50;;;;;;;;;;10532461;27;20044;-77
2024/02/03 09:44:41;;;;;;;1.75;1.60;;;;;;;;;;10528873;28;20055;-77
2024/02/03 09:49:44;;;;;;;1.85;1.75;;;;;;;;;;10531166;28;20122;-77
2024/02/03 09:54:48;;;;;;;1.75;1.65;;;;;;;;;;10513797;28;20126;-76
2024/02/03 09:59:53;;;;;;;1.85;1.75;;;;;;;;;;10530848;28;20050;-77
2024/02/03 10:04:56;;;;;;;2.60;1.55;;;;;;;;;;10526226;27;20048;-76
2024/02/03 10:10:04;;;;;;;3.72;2.20;;;;;;;;;;10525675;28;20161;-77
2024/02/03 10:15:11;;;;;;;2.00;1.90;;;;;;;;;;10527550;27;20124;-75
2024/02/03 10:20:14;;;;;;;2.63;1.80;;;;;;;;;;10527149;28;20111;-75
2024/02/03 10:25:18;;;;;;;2.88;2.47;;;;;;;;;;10528481;27;20040;-76
2024/02/03 10:30:25;;;;;;;4.25;2.10;;;;;;;;;;10531685;27;20044;-76
2024/02/03 10:35:28;;;;;;;2.42;2.17;;;;;;;;;;10529321;27;20032;-76
2024/02/03 10:40:33;;;;;;;2.40;2.20;;;;;;;;;;10526715;27;20044;-76
2024/02/03 10:45:39;;;;;;;2.45;2.05;;;;;;;;;;10527992;28;20044;-76
2024/02/03 10:50:43;;;;;;;2.10;1.90;;;;;;;;;;10526687;27;20048;-76
2024/02/03 10:55:54;;;;;;;2.35;2.15;;;;;;;;;;10528973;28;20052;-76
2024/02/03 11:01:10;;;;;;;2.42;2.22;;;;;;;;;;10530871;28;20052;-77
2024/02/03 11:06:13;;;;;;;2.47;2.22;;;;;;;;;;10528030;28;21421;-77
2024/02/03 11:11:24;;;;;;;2.25;1.90;;;;;;;;;;10531332;28;20051;-77
2024/02/03 11:16:36;;;;;;;1.80;1.70;;;;;;;;;;10530599;28;20441;-77
2024/02/03 11:21:43;;;;;;;1.90;1.80;;;;;;;;;;10529095;28;20188;-77
2024/02/03 11:26:54;;;;;;;2.03;1.85;;;;;;;;;;10530635;28;20036;-77
2024/02/03 11:31:59;;;;;;;3.00;2.22;;;;;;;;;;10526425;28;20049;-78
2024/02/03 11:37:02;;;;;;;2.35;1.83;;;;;;;;;;10524337;28;20094;-77
2024/02/03 11:42:06;;;;;;;2.13;1.92;;;;;;;;;;10527205;28;20074;-78
2024/02/03 11:47:10;;;;;;;2.72;2.00;;;;;;;;;;10534177;27;20106;-78
2024/02/03 11:52:13;;;;;;;1.83;1.73;;;;;;;;;;10536772;27;20899;-77
2024/02/03 11:57:15;;;;;;;2.10;1.90;;;;;;;;;;10517465;28;20136;-76
2024/02/03 12:02:21;;;;;;;3.13;2.10;;;;;;;;;;10535205;27;20045;-76
2024/02/03 12:07:24;;;;;;;2.10;1.95;;;;;;;;;;10533080;28;20044;-76
2024/02/03 12:12:27;;;;;;;2.30;1.80;;;;;;;;;;10539467;27;20408;-77
2024/02/03 12:17:31;;;;;;;2.33;1.85;;;;;;;;;;10538502;27;20042;-76
2024/02/03 12:22:35;;;;;;;2.85;1.83;;;;;;;;;;10537205;27;20051;-77
2024/02/03 12:27:37;;;;;;;2.47;1.80;;;;;;;;;;10535715;27;20102;-77
2024/02/03 12:32:42;;;;;;;1.48;1.38;;;;;;;;;;10536007;27;20055;-76
2024/02/03 12:37:45;;;;;;;2.05;1.60;;;;;;;;;;10518115;27;20039;-76
2024/02/03 12:42:48;;;;;;;1.95;1.55;;;;;;;;;;10538722;28;20070;-77
2024/02/03 12:47:54;;;;;;;1.50;1.40;;;;;;;;;;10538230;27;20437;-78
2024/02/03 12:52:58;;;;;;;1.73;1.52;;;;;;;;;;10538306;27;20035;-76
2024/02/03 12:58:01;;;;;;;1.88;1.63;;;;;;;;;;10536606;28;20043;-76
2024/02/03 13:03:05;;;;;;;1.58;1.48;;;;;;;;;;10535078;27;20384;-77
2024/02/03 13:08:08;;;;;;;1.35;1.27;;;;;;;;;;10534345;27;20043;-77
2024/02/03 13:13:11;;;;;;;2.25;1.48;;;;;;;;;;10536133;27;20130;-76
2024/02/03 13:18:15;;;;;;;1.40;1.30;;;;;;;;;;10533154;27;20190;-76
2024/02/03 13:23:18;;;;;;;1.92;1.33;;;;;;;;;;10533307;28;20040;-76
2024/02/03 13:28:21;;;;;;;1.67;1.30;;;;;;;;;;10535936;27;20074;-76
2024/02/03 13:33:26;;;;;;;2.13;1.45;;;;;;;;;;10539679;27;20145;-76
2024/02/03 13:38:28;;;;;;;2.33;1.65;;;;;;;;;;10532350;28;20486;-76
2024/02/03 13:43:31;;;;;;;2.00;1.70;;;;;;;;;;10533140;28;20130;-75
2024/02/03 13:48:38;;;;;;;2.25;1.60;;;;;;;;;;10530642;28;20040;-76
2024/02/03 13:53:42;;;;;;;1.98;1.48;;;;;;;;;;10528279;27;20057;-76
2024/02/03 13:58:45;;;;;;;1.10;1.10;;;;;;;;;;10529009;28;20042;-77
2024/02/03 14:03:49;;;;;;;5.15;1.48;;;;;;;;;;10527946;27;20070;-77
2024/02/03 14:08:52;;;;;;;1.33;1.23;;;;;;;;;;10528642;27;20054;-77
2024/02/03 14:13:55;;;;;;;;;;;;;;;;;;10534212;27;21254;-77
2024/02/03 14:18:59;;;;;;;3.53;1.38;;;;;;;;;;10543790;27;19935;-78
2024/02/03 14:24:02;;;;;;;2.80;1.33;;;;;;;;;;10533646;27;20044;-78
2024/02/03 14:29:05;;;;;;;1.63;1.30;;;;;;;;;;10536832;28;20099;-77
2024/02/03 14:34:10;;;;;;;3.15;1.00;;;;;;;;;;10530168;28;20134;-77
2024/02/03 14:39:15;;;;;;;1.40;0.90;;;;;;;;;;10526937;28;20045;-77
2024/02/03 14:44:19;;;;;;;1.35;0.90;;;;;;;;;;10512321;28;20040;-78
2024/02/03 14:49:23;;;;;;;1.48;0.90;;;;;;;;;;10541546;27;20043;-78
2024/02/03 14:54:26;;;;;;;1.30;1.00;;;;;;;;;;10532471;27;20516;-76
2024/02/03 14:59:29;;;;;;;3.30;1.20;;;;;;;;;;10534165;28;20039;-77
2024/02/03 15:04:34;;;;;;;3.13;1.40;;;;;;;;;;10535298;28;20800;-77
2024/02/03 15:09:36;;;;;;;3.17;1.40;;;;;;;;;;10531526;28;20485;-77
2024/02/03 15:14:39;;;;;;;2.83;1.10;;;;;;;;;;10533490;28;20044;-75
2024/02/03 15:19:43;;;;;;;3.30;1.50;;;;;;;;;;10532559;28;20382;-75
2024/02/03 15:24:47;;;;;;;5.75;1.70;;;;;;;;;;10541082;27;20405;-76
2024/02/03 15:29:50;;;;;;;3.73;1.60;;;;;;;;;;10540495;28;20047;-76
2024/02/03 15:34:54;;;;;;;4.22;1.95;;;;;;;;;;10550226;27;20047;-76
2024/02/03 15:39:57;;;;;;;1.92;1.45;;;;;;;;;;10538433;28;20039;-76
2024/02/03 15:45:00;;;;;;;3.65;1.80;;;;;;;;;;10542356;28;20054;-76
2024/02/03 15:50:04;;;;;;;5.35;2.75;;;;;;;;;;10538774;27;20046;-76
2024/02/03 15:55:07;;;;;;;5.75;2.70;;;;;;;;;;10538948;27;20060;-76
2024/02/03 16:00:13;;;;;;;6.05;2.60;;;;;;;;;;10536937;27;20043;-77
2024/02/03 16:05:17;;;;;;;7.40;2.75;;;;;;;;;;10538520;27;20039;-76
2024/02/03 16:10:21;;;;;;;5.07;2.58;;;;;;;;;;10539612;27;20031;-77
2024/02/03 16:15:25;;;;;;;4.57;2.40;;;;;;;;;;10541103;27;20973;-75
2024/02/03 16:20:29;;;;;;;5.38;2.90;;;;;;;;;;10537285;27;20044;-77
2024/02/03 16:25:32;;;;;;;5.60;2.65;;;;;;;;;;10545747;27;20203;-76
2024/02/03 16:30:35;;;;;;;7.85;3.15;;;;;;;;;;10554713;27;20160;-77
2024/02/03 16:35:39;;;;;;;4.63;2.47;;;;;;;;;;10549698;28;20132;-76
2024/02/03 16:40:42;;;;;;;5.22;2.60;;;;;;;;;;10537470;28;20044;-75
2024/02/03 16:45:45;;;;;;;6.15;2.80;;;;;;;;;;10537851;27;20141;-76
2024/02/03 16:50:49;;;;;;;7.20;2.65;;;;;;;;;;10536734;27;21704;-75
2024/02/03 16:55:51;;;;;;;;;;;;;;;;;;10537921;27;20047;-75
2024/02/03 17:00:54;;;;;;;4.75;2.67;;;;;;;;;;10537225;27;20029;-75
2024/02/03 17:05:59;;;;;;;5.20;2.60;;;;;;;;;;10535637;27;20039;-76
2024/02/03 17:11:02;;;;;;;7.82;2.88;;;;;;;;;;10535123;27;20051;-77
2024/02/03 17:16:05;;;;;;;7.82;3.25;;;;;;;;;;10538678;27;20090;-78
2024/02/03 17:21:10;;;;;;;6.23;2.77;;;;;;;;;;10531840;28;20059;-77
2024/02/03 17:26:13;;;;;;;8.52;3.00;;;;;;;;;;10538147;27;20066;-77
2024/02/03 17:31:15;;;;;;;5.97;2.70;;;;;;;;;;10539521;27;20092;-75
2024/02/03 17:36:20;;;;;;;5.28;2.60;;;;;;;;;;10534544;27;20050;-76
2024/02/03 17:41:22;;;;;;;;;;;;;;;;;;10516577;27;20142;-75
2024/02/03 17:46:25;;;;;;;8.02;3.13;;;;;;;;;;10534094;28;19923;-75
2024/02/03 17:51:29;;;;;;;6.53;2.72;;;;;;;;;;10534725;28;20043;-75
2024/02/03 17:56:34;;;;;;;7.10;2.97;;;;;;;;;;10530445;27;20079;-75
2024/02/03 18:01:37;;;;;;;6.47;3.30;;;;;;;;;;10534174;28;20134;-76
2024/02/03 18:06:41;;;;;;;8.25;3.45;;;;;;;;;;10532740;28;20047;-75
2024/02/03 18:11:44;;;;;;;7.13;3.20;;;;;;;;;;10533657;28;20055;-75
2024/02/03 18:16:47;;;;;;;12.02;4.10;;;;;;;;;;10516827;27;20066;-76
2024/02/03 18:21:51;;;;;;;10.80;4.57;;;;;;;;;;10535555;27;20047;-76
2024/02/03 18:26:54;;;;;;;;;;;;;;;;;;10532087;28;20040;-76
2024/02/03 18:31:56;;;;;;;8.57;3.60;;;;;;;;;;10527437;27;19951;-75
2024/02/03 18:37:00;;;;;;;8.55;3.70;;;;;;;;;;10537148;28;20044;-74
2024/02/03 18:42:03;;;;;;;13.43;5.20;;;;;;;;;;10533612;28;20058;-75
2024/02/03 18:47:06;;;;;;;11.77;4.80;;;;;;;;;;10535952;28;20052;-75
2024/02/03 18:52:10;;;;;;;9.48;4.00;;;;;;;;;;10533250;28;20044;-75
2024/02/03 18:57:13;;;;;;;9.73;4.20;;;;;;;;;;10536690;28;20118;-75
2024/02/03 19:02:15;;;;;;;8.52;3.60;;;;;;;;;;10536185;28;20039;-74
2024/02/03 19:07:19;;;;;;;7.20;3.65;;;;;;;;;;10518944;28;20043;-75
2024/02/03 19:12:22;;;;;;;;;;;;;;;;;;10530985;28;20146;-77
2024/02/03 19:17:25;;;;;;;9.48;4.40;;;;;;;;;;10532873;28;20054;-75
2024/02/03 19:22:29;;;;;;;7.80;3.90;;;;;;;;;;10533370;28;20093;-75
2024/02/03 19:27:32;;;;;;;9.77;3.75;;;;;;;;;;10534136;28;20600;-76
2024/02/03 19:32:35;;;;;;;12.10;4.25;;;;;;;;;;10534049;28;20086;-76
2024/02/03 19:37:39;;;;;;;10.32;4.35;;;;;;;;;;10519384;28;20074;-76
2024/02/03 19:42:43;;;;;;;10.18;4.45;;;;;;;;;;10533194;28;20062;-77
2024/02/03 19:47:47;;;;;;;;;;;;;;;;;;10532802;28;20047;-76
2024/02/03 19:52:51;;;;;;;8.70;4.30;;;;;;;;;;10527885;28;20357;-76
2024/02/03 19:57:55;;;;;;;8.02;3.55;;;;;;;;;;10537767;28;20166;-77
2024/02/03 20:02:57;;;;;;;11.10;4.13;;;;;;;;;;10531201;28;20055;-76
2024/02/03 20:08:02;;;;;;;6.00;2.10;;;;;;;;;;10536028;28;20099;-76
2024/02/03 20:13:05;;;;;;;12.90;5.10;;;;;;;;;;10542650;27;20128;-77
2024/02/03 20:18:08;;;;;;;9.15;4.72;;;;;;;;;;10543578;27;20040;-76
2024/02/03 20:23:12;;;;;;;11.60;4.40;;;;;;;;;;10537893;27;20079;-75
2024/02/03 20:28:18;;;;;;;;;;;;;;;;;;10556916;27;20454;-77
2024/02/03 20:33:21;;;;;;;10.20;4.47;;;;;;;;;;10519159;27;19931;-76
2024/02/03 20:38:26;;;;;;;9.88;3.75;;;;;;;;;;10535214;27;20047;-76
2024/02/03 20:43:29;;;;;;;10.07;5.40;;;;;;;;;;10537818;27;20518;-76
2024/02/03 20:48:32;;;;;;;14.85;6.32;;;;;;;;;;10538060;28;20064;-75
2024/02/03 20:53:36;;;;;;;11.10;5.18;;;;;;;;;;10521338;28;20256;-76
2024/02/03 20:58:39;;;;;;;10.93;5.10;;;;;;;;;;10531990;27;20048;-76
2024/02/03 21:03:43;;;;;;;12.82;5.70;;;;;;;;;;10536407;27;20048;-75
2024/02/03 21:08:49;;;;;;;16.08;6.38;;;;;;;;;;10535045;27;20058;-77
2024/02/03 21:13:51;;;;;;;14.55;5.75;;;;;;;;;;10535862;27;20040;-75
2024/02/03 21:18:54;;;;;;;12.13;5.47;;;;;;;;;;10534658;27;20150;-75
2024/02/03 21:23:58;;;;;;;11.43;5.47;;;;;;;;;;10535606;27;20052;-75
2024/02/03 21:29:01;;;;;;;12.52;5.03;;;;;;;;;;10534276;27;20762;-76
2024/02/03 21:34:03;;;;;;;12.05;5.78;;;;;;;;;;10538104;27;20047;-75
2024/02/03 21:39:10;;;;;;;13.45;5.45;;;;;;;;;;10534153;27;20088;-75
2024/02/03 21:44:13;;;;;;;11.05;4.30;;;;;;;;;;10534648;28;20119;-76
2024/02/03 21:49:16;;;;;;;12.87;4.80;;;;;;;;;;10515798;28;21837;-75
2024/02/03 21:54:21;;;;;;;11.45;4.55;;;;;;;;;;10532474;27;20046;-75
2024/02/03 21:59:24;;;;;;;7.78;4.00;;;;;;;;;;10533073;27;20048;-75
2024/02/03 22:04:26;;;;;;;9.23;4.28;;;;;;;;;;10532179;27;20085;-75
2024/02/03 22:09:31;;;;;;;9.50;4.30;;;;;;;;;;10528992;28;20040;-75
2024/02/03 22:14:35;;;;;;;;;;;;;;;;;;10531791;28;20055;-75
2024/02/03 22:19:37;;;;;;;7.47;3.72;;;;;;;;;;10517296;28;19927;-75
2024/02/03 22:24:42;;;;;;;7.43;3.53;;;;;;;;;;10535327;27;20059;-75
2024/02/03 22:29:45;;;;;;;9.75;4.22;;;;;;;;;;10532099;27;20040;-75
2024/02/03 22:34:48;;;;;;;8.75;4.13;;;;;;;;;;10535696;28;20052;-76
2024/02/03 22:39:53;;;;;;;8.73;4.43;;;;;;;;;;10533847;28;20122;-75
2024/02/03 22:44:56;;;;;;;8.80;4.25;;;;;;;;;;10535195;28;20047;-75
2024/02/03 22:49:58;;;;;;;6.82;3.33;;;;;;;;;;10536978;28;20048;-75
2024/02/03 22:55:02;;;;;;;10.05;4.35;;;;;;;;;;10533328;27;20050;-75
2024/02/03 23:00:26;;;;;;;7.15;3.72;;;;;;;;;;10536478;28;20051;-75
2024/02/03 23:05:30;;;;;;;3.65;2.17;;;;;;;;;;10513678;28;20168;-75
2024/02/03 23:10:34;;;;;;;7.27;3.80;;;;;;;;;;10532703;28;20526;-77
2024/02/03 23:15:37;;;;;;;6.95;2.92;;;;;;;;;;10530897;28;20320;-79
2024/02/03 23:20:45;;;;;;;7.50;3.15;;;;;;;;;;10531631;28;20039;-76
2024/02/03 23:25:50;;;;;;;4.85;2.17;;;;;;;;;;10537307;28;20108;-76
2024/02/03 23:30:53;;;;;;;7.32;3.45;;;;;;;;;;10531401;28;20048;-75
2024/02/03 23:35:56;;;;;;;7.53;3.00;;;;;;;;;;10528735;28;20075;-76
2024/02/03 23:41:00;;;;;;;6.68;2.72;;;;;;;;;;10534192;28;20032;-74
2024/02/03 23:46:03;;;;;;;;;;;;;;;;;;10520862;27;20074;-76
2024/02/03 23:51:06;;;;;;;6.25;2.95;;;;;;;;;;10539590;28;19928;-75
2024/02/03 23:56:10;;;;;;;5.60;2.63;;;;;;;;;;10541326;27;20131;-76
